sensor_id;sensor_type;location;lat;lon;timestamp;P1;durP1;ratioP1;P2;durP2;ratioP2
61635;SDS011;59438;45.014;39.006;2022-12-18T00:01:31;34.78;;;15.13;;
61635;SDS011;59438;45.014;39.006;2022-12-18T00:03:59;35.05;;;15.65;;
61635;SDS011;59438;45.014;39.006;2022-12-18T00:06:27;27.05;;;12.02;;
61635;SDS011;59438;45.014;39.006;2022-12-18T00:08:54;22.23;;;11.48;;
61635;SDS011;59438;45.014;39.006;2022-12-18T00:11:22;21.80;;;10.98;;
61635;SDS011;59438;45.014;39.006;2022-12-18T00:13:52;20.33;;;10.55;;
61635;SDS011;59438;45.014;39.006;2022-12-18T00:16:21;20.55;;;10.55;;
61635;SDS011;59438;45.014;39.006;2022-12-18T00:18:49;66.95;;;28.05;;
61635;SDS011;59438;45.014;39.006;2022-12-18T00:21:16;51.70;;;20.67;;
61635;SDS011;59438;45.014;39.006;2022-12-18T00:23:43;32.55;;;14.30;;
61635;SDS011;59438;45.014;39.006;2022-12-18T00:26:10;33.45;;;16.00;;
61635;SDS011;59438;45.014;39.006;2022-12-18T00:28:38;53.05;;;24.63;;
61635;SDS011;59438;45.014;39.006;2022-12-18T00:31:07;34.85;;;15.80;;
61635;SDS011;59438;45.014;39.006;2022-12-18T00:33:35;38.55;;;19.48;;
61635;SDS011;59438;45.014;39.006;2022-12-18T00:36:02;24.20;;;10.75;;
61635;SDS011;59438;45.014;39.006;2022-12-18T00:38:29;18.58;;;8.07;;
61635;SDS011;59438;45.014;39.006;2022-12-18T00:40:56;20.52;;;8.68;;
61635;SDS011;59438;45.014;39.006;2022-12-18T00:43:23;15.68;;;7.80;;
61635;SDS011;59438;45.014;39.006;2022-12-18T00:45:49;18.70;;;8.38;;
61635;SDS011;59438;45.014;39.006;2022-12-18T00:48:17;14.90;;;8.23;;
61635;SDS011;59438;45.014;39.006;2022-12-18T00:50:43;18.48;;;8.15;;
61635;SDS011;59438;45.014;39.006;2022-12-18T00:53:10;21.23;;;8.35;;
61635;SDS011;59438;45.014;39.006;2022-12-18T00:55:37;22.08;;;8.23;;
61635;SDS011;59438;45.014;39.006;2022-12-18T00:58:04;12.77;;;7.57;;
61635;SDS011;59438;45.014;39.006;2022-12-18T01:00:31;22.13;;;8.57;;
61635;SDS011;59438;45.014;39.006;2022-12-18T01:02:57;16.17;;;8.73;;
61635;SDS011;59438;45.014;39.006;2022-12-18T01:05:26;27.08;;;15.38;;
61635;SDS011;59438;45.014;39.006;2022-12-18T01:07:52;22.80;;;14.50;;
61635;SDS011;59438;45.014;39.006;2022-12-18T01:10:19;22.55;;;12.07;;
61635;SDS011;59438;45.014;39.006;2022-12-18T01:12:45;22.08;;;12.40;;
61635;SDS011;59438;45.014;39.006;2022-12-18T01:15:12;22.27;;;11.88;;
61635;SDS011;59438;45.014;39.006;2022-12-18T01:17:39;23.67;;;11.02;;
61635;SDS011;59438;45.014;39.006;2022-12-18T01:20:09;35.33;;;17.00;;
61635;SDS011;59438;45.014;39.006;2022-12-18T01:22:39;15.38;;;9.23;;
61635;SDS011;59438;45.014;39.006;2022-12-18T01:25:05;19.38;;;9.18;;
61635;SDS011;59438;45.014;39.006;2022-12-18T01:27:33;21.42;;;10.25;;
61635;SDS011;59438;45.014;39.006;2022-12-18T01:29:59;24.38;;;10.32;;
61635;SDS011;59438;45.014;39.006;2022-12-18T01:32:26;26.65;;;12.48;;
61635;SDS011;59438;45.014;39.006;2022-12-18T01:34:54;24.67;;;12.32;;
61635;SDS011;59438;45.014;39.006;2022-12-18T01:37:21;23.00;;;11.63;;
61635;SDS011;59438;45.014;39.006;2022-12-18T01:39:49;23.35;;;11.27;;
61635;SDS011;59438;45.014;39.006;2022-12-18T01:42:15;19.75;;;8.48;;
61635;SDS011;59438;45.014;39.006;2022-12-18T01:47:48;14.25;;;7.70;;
61635;SDS011;59438;45.014;39.006;2022-12-18T01:50:17;20.80;;;8.68;;
61635;SDS011;59438;45.014;39.006;2022-12-18T01:52:47;15.57;;;7.93;;
61635;SDS011;59438;45.014;39.006;2022-12-18T01:55:18;16.08;;;7.90;;
61635;SDS011;59438;45.014;39.006;2022-12-18T01:57:46;15.68;;;8.98;;
61635;SDS011;59438;45.014;39.006;2022-12-18T02:00:15;15.23;;;7.10;;
61635;SDS011;59438;45.014;39.006;2022-12-18T02:02:44;14.45;;;6.97;;
61635;SDS011;59438;45.014;39.006;2022-12-18T02:05:12;14.23;;;7.22;;
61635;SDS011;59438;45.014;39.006;2022-12-18T02:07:43;14.80;;;7.53;;
61635;SDS011;59438;45.014;39.006;2022-12-18T02:10:22;14.15;;;7.22;;
61635;SDS011;59438;45.014;39.006;2022-12-18T02:12:55;15.27;;;7.32;;
61635;SDS011;59438;45.014;39.006;2022-12-18T02:15:30;14.18;;;7.32;;
61635;SDS011;59438;45.014;39.006;2022-12-18T02:18:03;14.52;;;7.53;;
61635;SDS011;59438;45.014;39.006;2022-12-18T02:20:35;16.92;;;8.00;;
61635;SDS011;59438;45.014;39.006;2022-12-18T02:23:09;17.00;;;7.20;;
61635;SDS011;59438;45.014;39.006;2022-12-18T02:28:42;16.90;;;8.52;;
61635;SDS011;59438;45.014;39.006;2022-12-18T02:31:11;17.35;;;8.15;;
61635;SDS011;59438;45.014;39.006;2022-12-18T02:33:42;15.80;;;8.90;;
61635;SDS011;59438;45.014;39.006;2022-12-18T02:36:40;16.67;;;8.93;;
61635;SDS011;59438;45.014;39.006;2022-12-18T02:39:08;20.20;;;12.00;;
61635;SDS011;59438;45.014;39.006;2022-12-18T02:41:38;20.33;;;13.10;;
61635;SDS011;59438;45.014;39.006;2022-12-18T02:44:07;22.90;;;13.75;;
61635;SDS011;59438;45.014;39.006;2022-12-18T02:46:36;20.67;;;13.63;;
61635;SDS011;59438;45.014;39.006;2022-12-18T02:49:08;20.52;;;13.80;;
61635;SDS011;59438;45.014;39.006;2022-12-18T02:51:44;26.00;;;14.38;;
61635;SDS011;59438;45.014;39.006;2022-12-18T02:54:18;27.08;;;16.88;;
61635;SDS011;59438;45.014;39.006;2022-12-18T02:56:53;28.05;;;18.55;;
61635;SDS011;59438;45.014;39.006;2022-12-18T03:01:55;31.13;;;19.30;;
61635;SDS011;59438;45.014;39.006;2022-12-18T03:04:25;30.87;;;19.23;;
61635;SDS011;59438;45.014;39.006;2022-12-18T03:06:56;41.10;;;23.08;;
61635;SDS011;59438;45.014;39.006;2022-12-18T03:09:27;40.92;;;28.50;;
61635;SDS011;59438;45.014;39.006;2022-12-18T03:12:00;43.60;;;32.47;;
61635;SDS011;59438;45.014;39.006;2022-12-18T03:14:30;51.78;;;35.15;;
61635;SDS011;59438;45.014;39.006;2022-12-18T03:17:01;49.63;;;36.00;;
61635;SDS011;59438;45.014;39.006;2022-12-18T03:19:31;51.95;;;35.50;;
61635;SDS011;59438;45.014;39.006;2022-12-18T03:21:59;42.00;;;31.77;;
61635;SDS011;59438;45.014;39.006;2022-12-18T03:24:28;37.63;;;26.63;;
61635;SDS011;59438;45.014;39.006;2022-12-18T03:26:57;33.10;;;22.60;;
61635;SDS011;59438;45.014;39.006;2022-12-18T03:29:32;31.20;;;21.77;;
61635;SDS011;59438;45.014;39.006;2022-12-18T03:32:03;27.20;;;17.75;;
61635;SDS011;59438;45.014;39.006;2022-12-18T03:34:35;20.83;;;15.32;;
61635;SDS011;59438;45.014;39.006;2022-12-18T03:37:06;23.77;;;13.85;;
61635;SDS011;59438;45.014;39.006;2022-12-18T03:39:33;20.70;;;12.95;;
61635;SDS011;59438;45.014;39.006;2022-12-18T03:42:03;21.75;;;13.07;;
61635;SDS011;59438;45.014;39.006;2022-12-18T03:44:35;17.92;;;12.15;;
61635;SDS011;59438;45.014;39.006;2022-12-18T03:47:07;22.80;;;11.75;;
61635;SDS011;59438;45.014;39.006;2022-12-18T03:49:38;20.80;;;10.32;;
61635;SDS011;59438;45.014;39.006;2022-12-18T03:52:13;17.77;;;9.90;;
61635;SDS011;59438;45.014;39.006;2022-12-18T03:54:44;17.20;;;9.68;;
61635;SDS011;59438;45.014;39.006;2022-12-18T03:57:14;17.20;;;9.30;;
61635;SDS011;59438;45.014;39.006;2022-12-18T03:59:44;15.30;;;9.30;;
61635;SDS011;59438;45.014;39.006;2022-12-18T04:02:13;16.40;;;9.55;;
61635;SDS011;59438;45.014;39.006;2022-12-18T04:04:42;17.48;;;9.52;;
61635;SDS011;59438;45.014;39.006;2022-12-18T04:07:11;15.75;;;8.90;;
61635;SDS011;59438;45.014;39.006;2022-12-18T04:09:39;11.25;;;7.72;;
61635;SDS011;59438;45.014;39.006;2022-12-18T04:12:08;15.32;;;7.80;;
61635;SDS011;59438;45.014;39.006;2022-12-18T04:14:36;13.82;;;8.60;;
61635;SDS011;59438;45.014;39.006;2022-12-18T04:17:02;14.43;;;7.95;;
61635;SDS011;59438;45.014;39.006;2022-12-18T04:19:29;15.95;;;7.80;;
61635;SDS011;59438;45.014;39.006;2022-12-18T04:21:55;17.25;;;8.02;;
61635;SDS011;59438;45.014;39.006;2022-12-18T04:24:21;13.13;;;7.40;;
61635;SDS011;59438;45.014;39.006;2022-12-18T04:26:48;14.15;;;7.03;;
61635;SDS011;59438;45.014;39.006;2022-12-18T04:29:14;14.88;;;7.28;;
61635;SDS011;59438;45.014;39.006;2022-12-18T04:31:42;21.35;;;7.40;;
61635;SDS011;59438;45.014;39.006;2022-12-18T04:34:09;19.50;;;7.63;;
61635;SDS011;59438;45.014;39.006;2022-12-18T04:36:35;16.77;;;8.05;;
61635;SDS011;59438;45.014;39.006;2022-12-18T04:39:01;17.75;;;7.78;;
61635;SDS011;59438;45.014;39.006;2022-12-18T04:41:28;19.38;;;7.68;;
61635;SDS011;59438;45.014;39.006;2022-12-18T04:43:55;17.25;;;7.35;;
61635;SDS011;59438;45.014;39.006;2022-12-18T04:46:21;15.73;;;7.32;;
61635;SDS011;59438;45.014;39.006;2022-12-18T04:48:49;11.02;;;6.85;;
61635;SDS011;59438;45.014;39.006;2022-12-18T04:51:16;13.02;;;6.95;;
61635;SDS011;59438;45.014;39.006;2022-12-18T04:53:42;16.63;;;7.32;;
61635;SDS011;59438;45.014;39.006;2022-12-18T04:56:09;10.95;;;6.60;;
61635;SDS011;59438;45.014;39.006;2022-12-18T04:58:37;14.80;;;6.93;;
61635;SDS011;59438;45.014;39.006;2022-12-18T05:01:04;17.10;;;6.53;;
61635;SDS011;59438;45.014;39.006;2022-12-18T05:03:31;12.88;;;6.22;;
61635;SDS011;59438;45.014;39.006;2022-12-18T05:05:59;11.65;;;6.60;;
61635;SDS011;59438;45.014;39.006;2022-12-18T05:08:25;16.48;;;6.82;;
61635;SDS011;59438;45.014;39.006;2022-12-18T05:10:57;12.57;;;6.80;;
61635;SDS011;59438;45.014;39.006;2022-12-18T05:13:24;12.48;;;6.95;;
61635;SDS011;59438;45.014;39.006;2022-12-18T05:15:51;14.93;;;7.25;;
61635;SDS011;59438;45.014;39.006;2022-12-18T05:18:18;11.95;;;6.20;;
61635;SDS011;59438;45.014;39.006;2022-12-18T05:20:44;10.95;;;6.40;;
61635;SDS011;59438;45.014;39.006;2022-12-18T05:23:12;14.13;;;6.40;;
61635;SDS011;59438;45.014;39.006;2022-12-18T05:25:39;13.13;;;5.68;;
61635;SDS011;59438;45.014;39.006;2022-12-18T05:28:05;13.05;;;6.00;;
61635;SDS011;59438;45.014;39.006;2022-12-18T05:30:31;8.50;;;5.80;;
61635;SDS011;59438;45.014;39.006;2022-12-18T05:32:58;10.32;;;5.90;;
61635;SDS011;59438;45.014;39.006;2022-12-18T05:35:24;12.40;;;5.78;;
61635;SDS011;59438;45.014;39.006;2022-12-18T05:37:50;12.80;;;5.28;;
61635;SDS011;59438;45.014;39.006;2022-12-18T05:40:18;9.38;;;5.75;;
61635;SDS011;59438;45.014;39.006;2022-12-18T05:42:45;18.85;;;5.90;;
61635;SDS011;59438;45.014;39.006;2022-12-18T05:45:11;18.10;;;5.05;;
61635;SDS011;59438;45.014;39.006;2022-12-18T05:47:37;8.65;;;4.28;;
61635;SDS011;59438;45.014;39.006;2022-12-18T05:50:04;13.10;;;6.18;;
61635;SDS011;59438;45.014;39.006;2022-12-18T05:52:31;12.75;;;6.47;;
61635;SDS011;59438;45.014;39.006;2022-12-18T05:54:58;14.80;;;4.78;;
61635;SDS011;59438;45.014;39.006;2022-12-18T05:57:26;8.10;;;4.32;;
61635;SDS011;59438;45.014;39.006;2022-12-18T05:59:52;10.63;;;4.60;;
61635;SDS011;59438;45.014;39.006;2022-12-18T06:02:18;7.45;;;4.38;;
61635;SDS011;59438;45.014;39.006;2022-12-18T06:04:45;8.95;;;3.90;;
61635;SDS011;59438;45.014;39.006;2022-12-18T06:07:11;11.63;;;4.70;;
61635;SDS011;59438;45.014;39.006;2022-12-18T06:09:38;12.10;;;5.38;;
61635;SDS011;59438;45.014;39.006;2022-12-18T06:12:04;16.23;;;5.70;;
61635;SDS011;59438;45.014;39.006;2022-12-18T06:14:33;11.27;;;5.50;;
61635;SDS011;59438;45.014;39.006;2022-12-18T06:16:59;8.93;;;4.38;;
61635;SDS011;59438;45.014;39.006;2022-12-18T06:19:25;6.15;;;3.78;;
61635;SDS011;59438;45.014;39.006;2022-12-18T06:21:52;7.45;;;4.22;;
61635;SDS011;59438;45.014;39.006;2022-12-18T06:24:18;12.02;;;7.20;;
61635;SDS011;59438;45.014;39.006;2022-12-18T06:26:45;10.32;;;6.07;;
61635;SDS011;59438;45.014;39.006;2022-12-18T06:29:11;8.65;;;5.80;;
61635;SDS011;59438;45.014;39.006;2022-12-18T06:31:39;10.18;;;5.32;;
61635;SDS011;59438;45.014;39.006;2022-12-18T06:34:05;8.10;;;3.75;;
61635;SDS011;59438;45.014;39.006;2022-12-18T06:36:32;5.88;;;3.60;;
61635;SDS011;59438;45.014;39.006;2022-12-18T06:38:58;5.13;;;3.35;;
61635;SDS011;59438;45.014;39.006;2022-12-18T06:41:25;6.55;;;3.38;;
61635;SDS011;59438;45.014;39.006;2022-12-18T06:43:52;7.78;;;3.45;;
61635;SDS011;59438;45.014;39.006;2022-12-18T06:46:18;9.27;;;3.63;;
61635;SDS011;59438;45.014;39.006;2022-12-18T06:48:48;8.15;;;3.67;;
61635;SDS011;59438;45.014;39.006;2022-12-18T06:51:18;8.83;;;3.37;;
61635;SDS011;59438;45.014;39.006;2022-12-18T06:53:45;13.02;;;4.32;;
61635;SDS011;59438;45.014;39.006;2022-12-18T06:56:12;7.40;;;3.47;;
61635;SDS011;59438;45.014;39.006;2022-12-18T06:58:39;8.88;;;3.72;;
61635;SDS011;59438;45.014;39.006;2022-12-18T07:01:08;8.63;;;3.78;;
61635;SDS011;59438;45.014;39.006;2022-12-18T07:03:36;6.28;;;4.25;;
61635;SDS011;59438;45.014;39.006;2022-12-18T07:06:04;7.55;;;3.67;;
61635;SDS011;59438;45.014;39.006;2022-12-18T07:08:31;12.90;;;4.38;;
61635;SDS011;59438;45.014;39.006;2022-12-18T07:10:58;12.90;;;4.85;;
61635;SDS011;59438;45.014;39.006;2022-12-18T07:13:24;15.65;;;6.90;;
61635;SDS011;59438;45.014;39.006;2022-12-18T07:15:50;16.92;;;7.85;;
61635;SDS011;59438;45.014;39.006;2022-12-18T07:18:17;20.50;;;8.77;;
61635;SDS011;59438;45.014;39.006;2022-12-18T07:20:43;18.77;;;9.07;;
61635;SDS011;59438;45.014;39.006;2022-12-18T07:23:11;19.35;;;9.07;;
61635;SDS011;59438;45.014;39.006;2022-12-18T07:25:38;16.33;;;8.15;;
61635;SDS011;59438;45.014;39.006;2022-12-18T07:28:04;35.58;;;9.70;;
61635;SDS011;59438;45.014;39.006;2022-12-18T07:30:30;14.10;;;7.90;;
61635;SDS011;59438;45.014;39.006;2022-12-18T07:32:57;16.77;;;7.93;;
61635;SDS011;59438;45.014;39.006;2022-12-18T07:35:23;15.70;;;8.00;;
61635;SDS011;59438;45.014;39.006;2022-12-18T07:37:50;17.80;;;8.82;;
61635;SDS011;59438;45.014;39.006;2022-12-18T07:40:18;17.30;;;8.70;;
61635;SDS011;59438;45.014;39.006;2022-12-18T07:42:44;17.40;;;8.70;;
61635;SDS011;59438;45.014;39.006;2022-12-18T07:45:10;16.35;;;7.82;;
61635;SDS011;59438;45.014;39.006;2022-12-18T07:47:37;16.23;;;7.75;;
61635;SDS011;59438;45.014;39.006;2022-12-18T07:50:04;14.30;;;7.43;;
61635;SDS011;59438;45.014;39.006;2022-12-18T07:52:31;14.90;;;7.85;;
61635;SDS011;59438;45.014;39.006;2022-12-18T07:54:58;17.27;;;9.43;;
61635;SDS011;59438;45.014;39.006;2022-12-18T07:57:25;13.85;;;6.80;;
61635;SDS011;59438;45.014;39.006;2022-12-18T07:59:52;16.77;;;8.02;;
61635;SDS011;59438;45.014;39.006;2022-12-18T08:02:18;73.30;;;11.88;;
61635;SDS011;59438;45.014;39.006;2022-12-18T08:04:45;16.85;;;9.40;;
61635;SDS011;59438;45.014;39.006;2022-12-18T08:07:11;11.57;;;7.57;;
61635;SDS011;59438;45.014;39.006;2022-12-18T08:09:37;11.88;;;4.78;;
61635;SDS011;59438;45.014;39.006;2022-12-18T08:12:04;7.70;;;3.05;;
61635;SDS011;59438;45.014;39.006;2022-12-18T08:14:32;4.50;;;2.75;;
61635;SDS011;59438;45.014;39.006;2022-12-18T08:16:59;24.55;;;3.63;;
61635;SDS011;59438;45.014;39.006;2022-12-18T08:19:25;9.10;;;3.42;;
61635;SDS011;59438;45.014;39.006;2022-12-18T08:21:51;7.60;;;4.03;;
61635;SDS011;59438;45.014;39.006;2022-12-18T08:24:18;11.77;;;6.50;;
61635;SDS011;59438;45.014;39.006;2022-12-18T08:26:47;15.15;;;5.10;;
61635;SDS011;59438;45.014;39.006;2022-12-18T08:29:14;13.65;;;5.70;;
61635;SDS011;59438;45.014;39.006;2022-12-18T08:31:41;12.20;;;6.10;;
61635;SDS011;59438;45.014;39.006;2022-12-18T08:34:08;17.75;;;8.70;;
61635;SDS011;59438;45.014;39.006;2022-12-18T08:36:34;7.05;;;3.97;;
61635;SDS011;59438;45.014;39.006;2022-12-18T08:39:01;6.10;;;2.72;;
61635;SDS011;59438;45.014;39.006;2022-12-18T08:41:27;4.55;;;3.08;;
61635;SDS011;59438;45.014;39.006;2022-12-18T08:43:54;6.45;;;3.00;;
61635;SDS011;59438;45.014;39.006;2022-12-18T08:46:21;11.40;;;8.85;;
61635;SDS011;59438;45.014;39.006;2022-12-18T08:48:51;8.07;;;5.32;;
61635;SDS011;59438;45.014;39.006;2022-12-18T08:51:18;7.32;;;5.50;;
61635;SDS011;59438;45.014;39.006;2022-12-18T08:53:45;5.00;;;3.80;;
61635;SDS011;59438;45.014;39.006;2022-12-18T08:56:12;5.93;;;5.20;;
61635;SDS011;59438;45.014;39.006;2022-12-18T08:58:39;4.38;;;2.72;;
61635;SDS011;59438;45.014;39.006;2022-12-18T09:01:06;7.75;;;2.45;;
61635;SDS011;59438;45.014;39.006;2022-12-18T09:03:35;6.63;;;2.45;;
61635;SDS011;59438;45.014;39.006;2022-12-18T09:06:03;7.18;;;2.28;;
61635;SDS011;59438;45.014;39.006;2022-12-18T09:08:30;5.45;;;2.10;;
61635;SDS011;59438;45.014;39.006;2022-12-18T09:10:57;4.22;;;1.75;;
61635;SDS011;59438;45.014;39.006;2022-12-18T09:13:23;3.63;;;2.08;;
61635;SDS011;59438;45.014;39.006;2022-12-18T09:15:50;8.75;;;3.95;;
61635;SDS011;59438;45.014;39.006;2022-12-18T09:18:20;6.93;;;2.42;;
61635;SDS011;59438;45.014;39.006;2022-12-18T09:20:47;6.07;;;2.17;;
61635;SDS011;59438;45.014;39.006;2022-12-18T09:23:16;2.72;;;1.70;;
61635;SDS011;59438;45.014;39.006;2022-12-18T09:25:42;3.53;;;2.20;;
61635;SDS011;59438;45.014;39.006;2022-12-18T09:28:10;5.30;;;2.97;;
61635;SDS011;59438;45.014;39.006;2022-12-18T09:30:38;9.13;;;2.97;;
61635;SDS011;59438;45.014;39.006;2022-12-18T09:33:04;6.93;;;5.20;;
61635;SDS011;59438;45.014;39.006;2022-12-18T09:35:31;3.25;;;2.40;;
61635;SDS011;59438;45.014;39.006;2022-12-18T09:37:57;2.25;;;1.80;;
61635;SDS011;59438;45.014;39.006;2022-12-18T09:40:25;4.90;;;1.80;;
61635;SDS011;59438;45.014;39.006;2022-12-18T09:42:59;10.50;;;2.40;;
61635;SDS011;59438;45.014;39.006;2022-12-18T09:45:29;9.00;;;2.78;;
61635;SDS011;59438;45.014;39.006;2022-12-18T09:48:02;3.65;;;2.20;;
61635;SDS011;59438;45.014;39.006;2022-12-18T09:50:31;5.82;;;2.35;;
61635;SDS011;59438;45.014;39.006;2022-12-18T09:53:02;7.72;;;3.92;;
61635;SDS011;59438;45.014;39.006;2022-12-18T09:55:33;9.15;;;4.07;;
61635;SDS011;59438;45.014;39.006;2022-12-18T09:58:05;6.90;;;3.33;;
61635;SDS011;59438;45.014;39.006;2022-12-18T10:00:38;6.22;;;3.25;;
61635;SDS011;59438;45.014;39.006;2022-12-18T10:03:08;6.72;;;3.38;;
61635;SDS011;59438;45.014;39.006;2022-12-18T10:05:37;3.88;;;2.38;;
61635;SDS011;59438;45.014;39.006;2022-12-18T10:08:10;5.45;;;3.50;;
61635;SDS011;59438;45.014;39.006;2022-12-18T10:10:46;4.65;;;3.30;;
61635;SDS011;59438;45.014;39.006;2022-12-18T10:13:17;3.00;;;2.22;;
61635;SDS011;59438;45.014;39.006;2022-12-18T10:15:51;7.80;;;3.60;;
61635;SDS011;59438;45.014;39.006;2022-12-18T10:18:30;10.00;;;3.30;;
61635;SDS011;59438;45.014;39.006;2022-12-18T10:21:23;5.05;;;2.10;;
61635;SDS011;59438;45.014;39.006;2022-12-18T10:23:58;11.32;;;3.70;;
61635;SDS011;59438;45.014;39.006;2022-12-18T10:26:35;9.73;;;3.95;;
61635;SDS011;59438;45.014;39.006;2022-12-18T10:29:04;20.40;;;5.78;;
61635;SDS011;59438;45.014;39.006;2022-12-18T10:31:36;50.28;;;11.40;;
61635;SDS011;59438;45.014;39.006;2022-12-18T10:34:03;4.20;;;2.67;;
61635;SDS011;59438;45.014;39.006;2022-12-18T10:36:29;32.28;;;8.50;;
61635;SDS011;59438;45.014;39.006;2022-12-18T10:38:57;4.80;;;2.90;;
61635;SDS011;59438;45.014;39.006;2022-12-18T10:41:42;5.35;;;2.90;;
61635;SDS011;59438;45.014;39.006;2022-12-18T10:44:12;5.47;;;2.58;;
61635;SDS011;59438;45.014;39.006;2022-12-18T10:46:43;5.18;;;2.67;;
61635;SDS011;59438;45.014;39.006;2022-12-18T10:49:18;8.30;;;2.90;;
61635;SDS011;59438;45.014;39.006;2022-12-18T10:51:46;3.50;;;2.45;;
61635;SDS011;59438;45.014;39.006;2022-12-18T10:54:14;10.63;;;3.97;;
61635;SDS011;59438;45.014;39.006;2022-12-18T10:56:44;10.68;;;3.30;;
61635;SDS011;59438;45.014;39.006;2022-12-18T10:59:11;12.68;;;3.00;;
61635;SDS011;59438;45.014;39.006;2022-12-18T11:01:50;8.07;;;2.95;;
61635;SDS011;59438;45.014;39.006;2022-12-18T11:04:19;4.40;;;2.30;;
61635;SDS011;59438;45.014;39.006;2022-12-18T11:06:59;7.82;;;2.70;;
61635;SDS011;59438;45.014;39.006;2022-12-18T11:09:27;4.85;;;2.40;;
61635;SDS011;59438;45.014;39.006;2022-12-18T11:12:03;6.18;;;3.03;;
61635;SDS011;59438;45.014;39.006;2022-12-18T11:14:43;5.38;;;3.10;;
61635;SDS011;59438;45.014;39.006;2022-12-18T11:17:17;5.97;;;3.03;;
61635;SDS011;59438;45.014;39.006;2022-12-18T11:19:47;8.25;;;3.20;;
61635;SDS011;59438;45.014;39.006;2022-12-18T11:22:20;6.22;;;3.30;;
61635;SDS011;59438;45.014;39.006;2022-12-18T11:24:56;7.13;;;3.38;;
61635;SDS011;59438;45.014;39.006;2022-12-18T11:27:33;5.88;;;3.65;;
61635;SDS011;59438;45.014;39.006;2022-12-18T11:30:07;9.27;;;3.50;;
61635;SDS011;59438;45.014;39.006;2022-12-18T11:32:34;7.47;;;3.70;;
61635;SDS011;59438;45.014;39.006;2022-12-18T11:35:04;8.88;;;3.90;;
61635;SDS011;59438;45.014;39.006;2022-12-18T11:37:42;9.13;;;4.05;;
61635;SDS011;59438;45.014;39.006;2022-12-18T11:40:14;8.27;;;4.35;;
61635;SDS011;59438;45.014;39.006;2022-12-18T11:42:48;8.10;;;4.07;;
61635;SDS011;59438;45.014;39.006;2022-12-18T11:45:24;7.68;;;4.30;;
61635;SDS011;59438;45.014;39.006;2022-12-18T11:47:55;9.98;;;4.03;;
61635;SDS011;59438;45.014;39.006;2022-12-18T11:50:25;11.07;;;4.50;;
61635;SDS011;59438;45.014;39.006;2022-12-18T11:52:55;11.23;;;5.00;;
61635;SDS011;59438;45.014;39.006;2022-12-18T11:55:24;7.70;;;4.32;;
61635;SDS011;59438;45.014;39.006;2022-12-18T11:57:59;8.98;;;5.15;;
61635;SDS011;59438;45.014;39.006;2022-12-18T12:00:32;10.23;;;5.20;;
61635;SDS011;59438;45.014;39.006;2022-12-18T12:03:14;9.25;;;5.68;;
61635;SDS011;59438;45.014;39.006;2022-12-18T12:05:53;11.35;;;5.95;;
61635;SDS011;59438;45.014;39.006;2022-12-18T12:08:29;12.50;;;5.50;;
61635;SDS011;59438;45.014;39.006;2022-12-18T12:11:08;12.47;;;6.03;;
61635;SDS011;59438;45.014;39.006;2022-12-18T12:13:43;13.40;;;7.13;;
61635;SDS011;59438;45.014;39.006;2022-12-18T12:16:21;15.90;;;8.50;;
61635;SDS011;59438;45.014;39.006;2022-12-18T12:18:58;16.52;;;8.98;;
61635;SDS011;59438;45.014;39.006;2022-12-18T12:21:34;15.30;;;8.07;;
61635;SDS011;59438;45.014;39.006;2022-12-18T12:24:09;38.17;;;9.02;;
61635;SDS011;59438;45.014;39.006;2022-12-18T12:26:49;17.10;;;9.63;;
61635;SDS011;59438;45.014;39.006;2022-12-18T12:29:32;15.45;;;8.68;;
61635;SDS011;59438;45.014;39.006;2022-12-18T12:32:10;15.48;;;8.52;;
61635;SDS011;59438;45.014;39.006;2022-12-18T12:34:47;16.25;;;9.55;;
61635;SDS011;59438;45.014;39.006;2022-12-18T12:37:28;18.25;;;9.25;;
61635;SDS011;59438;45.014;39.006;2022-12-18T12:40:05;19.42;;;8.93;;
61635;SDS011;59438;45.014;39.006;2022-12-18T12:42:33;15.55;;;8.57;;
61635;SDS011;59438;45.014;39.006;2022-12-18T12:45:06;21.05;;;9.30;;
61635;SDS011;59438;45.014;39.006;2022-12-18T12:47:42;16.67;;;8.45;;
61635;SDS011;59438;45.014;39.006;2022-12-18T12:50:13;26.95;;;12.40;;
61635;SDS011;59438;45.014;39.006;2022-12-18T12:52:43;16.23;;;10.25;;
61635;SDS011;59438;45.014;39.006;2022-12-18T12:55:14;19.42;;;10.10;;
61635;SDS011;59438;45.014;39.006;2022-12-18T12:57:45;29.95;;;15.45;;
61635;SDS011;59438;45.014;39.006;2022-12-18T13:00:18;17.13;;;9.98;;
61635;SDS011;59438;45.014;39.006;2022-12-18T13:02:47;29.55;;;14.85;;
61635;SDS011;59438;45.014;39.006;2022-12-18T13:05:19;25.80;;;13.20;;
61635;SDS011;59438;45.014;39.006;2022-12-18T13:07:52;20.50;;;11.30;;
61635;SDS011;59438;45.014;39.006;2022-12-18T13:10:31;18.73;;;10.30;;
61635;SDS011;59438;45.014;39.006;2022-12-18T13:13:00;17.95;;;8.93;;
61635;SDS011;59438;45.014;39.006;2022-12-18T13:15:34;19.15;;;9.95;;
61635;SDS011;59438;45.014;39.006;2022-12-18T13:18:11;15.18;;;9.02;;
61635;SDS011;59438;45.014;39.006;2022-12-18T13:20:42;18.02;;;9.70;;
61635;SDS011;59438;45.014;39.006;2022-12-18T13:23:19;21.67;;;9.65;;
61635;SDS011;59438;45.014;39.006;2022-12-18T13:25:52;17.90;;;10.13;;
61635;SDS011;59438;45.014;39.006;2022-12-18T13:28:20;20.30;;;13.48;;
61635;SDS011;59438;45.014;39.006;2022-12-18T13:30:50;17.42;;;10.23;;
61635;SDS011;59438;45.014;39.006;2022-12-18T13:36:25;13.88;;;9.95;;
61635;SDS011;59438;45.014;39.006;2022-12-18T13:39:11;15.40;;;9.60;;
61635;SDS011;59438;45.014;39.006;2022-12-18T13:41:47;16.10;;;9.73;;
61635;SDS011;59438;45.014;39.006;2022-12-18T13:44:22;18.50;;;9.93;;
61635;SDS011;59438;45.014;39.006;2022-12-18T13:46:53;14.27;;;9.38;;
61635;SDS011;59438;45.014;39.006;2022-12-18T13:49:21;9.95;;;6.72;;
61635;SDS011;59438;45.014;39.006;2022-12-18T13:51:51;12.10;;;6.68;;
61635;SDS011;59438;45.014;39.006;2022-12-18T13:54:19;11.13;;;6.38;;
61635;SDS011;59438;45.014;39.006;2022-12-18T13:56:51;12.82;;;6.72;;
61635;SDS011;59438;45.014;39.006;2022-12-18T13:59:18;14.82;;;7.43;;
61635;SDS011;59438;45.014;39.006;2022-12-18T14:01:47;18.38;;;7.72;;
61635;SDS011;59438;45.014;39.006;2022-12-18T14:04:19;14.57;;;8.13;;
61635;SDS011;59438;45.014;39.006;2022-12-18T14:06:52;17.02;;;8.65;;
61635;SDS011;59438;45.014;39.006;2022-12-18T14:09:23;17.17;;;8.75;;
61635;SDS011;59438;45.014;39.006;2022-12-18T14:11:55;22.88;;;9.85;;
61635;SDS011;59438;45.014;39.006;2022-12-18T14:14:22;22.08;;;9.50;;
61635;SDS011;59438;45.014;39.006;2022-12-18T14:16:49;16.38;;;7.97;;
61635;SDS011;59438;45.014;39.006;2022-12-18T14:19:16;19.38;;;8.65;;
61635;SDS011;59438;45.014;39.006;2022-12-18T14:21:45;17.70;;;9.02;;
61635;SDS011;59438;45.014;39.006;2022-12-18T14:24:14;19.70;;;9.30;;
61635;SDS011;59438;45.014;39.006;2022-12-18T14:26:41;16.05;;;8.13;;
61635;SDS011;59438;45.014;39.006;2022-12-18T14:29:18;20.30;;;8.15;;
61635;SDS011;59438;45.014;39.006;2022-12-18T14:34:33;14.75;;;7.88;;
61635;SDS011;59438;45.014;39.006;2022-12-18T14:37:00;14.65;;;8.20;;
61635;SDS011;59438;45.014;39.006;2022-12-18T14:39:26;20.15;;;11.70;;
61635;SDS011;59438;45.014;39.006;2022-12-18T14:41:53;13.80;;;7.07;;
61635;SDS011;59438;45.014;39.006;2022-12-18T14:44:19;16.83;;;8.15;;
61635;SDS011;59438;45.014;39.006;2022-12-18T14:46:46;17.33;;;10.90;;
61635;SDS011;59438;45.014;39.006;2022-12-18T14:49:21;48.45;;;36.20;;
61635;SDS011;59438;45.014;39.006;2022-12-18T14:51:52;30.13;;;19.38;;